Time;durP1;ratioP1;P1;durP2;ratioP2;P2;SDS_P1;SDS_P2;PMS_P1;PMS_P2;Temp;Humidity;BMP_temperature;BMP_pressure;BME280_temperature;BME280_humidity;BME280_pressure;Samples;Min_cycle;Max_cycle;Signal;HPM_P1;HPM_P2
2021/08/30 00:01:51;;;;;;;18.27;14.95;;;17.20;99.90;;;;;;6125531;23;20169;-71
2021/08/30 00:04:18;;;;;;;17.17;15.40;;;17.30;99.90;;;;;;6127355;23;20165;-71
2021/08/30 00:06:48;;;;;;;17.48;15.73;;;17.20;99.90;;;;;;6126733;23;20459;-72
2021/08/30 00:09:15;;;;;;;18.27;14.77;;;17.20;99.90;;;;;;6124984;23;20591;-71
2021/08/30 00:11:44;;;;;;;19.93;16.67;;;17.30;99.90;;;;;;6126560;23;20164;-70
2021/08/30 00:14:11;;;;;;;18.83;16.00;;;17.20;99.90;;;;;;6126932;23;20865;-71
2021/08/30 00:16:38;;;;;;;22.17;16.40;;;17.20;99.90;;;;;;6126764;23;20204;-71
2021/08/30 00:19:06;;;;;;;20.48;17.33;;;17.20;99.90;;;;;;6126452;23;20868;-71
2021/08/30 00:21:33;;;;;;;19.40;15.40;;;17.20;99.90;;;;;;6127394;23;20166;-71
2021/08/30 00:24:00;;;;;;;19.75;16.17;;;17.20;99.90;;;;;;6126669;23;20195;-71
2021/08/30 00:26:27;;;;;;;24.27;18.50;;;17.10;99.90;;;;;;6126867;23;20279;-71
2021/08/30 00:28:56;;;;;;;20.48;16.23;;;17.20;99.90;;;;;;6126127;23;20422;-71
2021/08/30 00:31:25;;;;;;;35.45;19.60;;;17.10;99.90;;;;;;6126833;23;20188;-71
2021/08/30 00:33:53;;;;;;;27.30;18.27;;;17.10;99.90;;;;;;6126979;23;20167;-71
2021/08/30 00:36:22;;;;;;;27.63;18.60;;;17.10;99.90;;;;;;6127241;23;20752;-71
2021/08/30 00:38:49;;;;;;;22.90;16.40;;;17.10;99.90;;;;;;6126323;23;20774;-71
2021/08/30 00:41:16;;;;;;;23.53;17.70;;;17.10;99.90;;;;;;6126982;23;20404;-70
2021/08/30 00:43:44;;;;;;;21.33;18.17;;;17.10;99.90;;;;;;6126894;23;20439;-71
2021/08/30 00:46:17;;;;;;;22.03;17.80;;;17.10;99.90;;;;;;6126820;23;20431;-71
2021/08/30 00:48:46;;;;;;;22.95;17.02;;;17.10;99.90;;;;;;6125643;23;20460;-71
2021/08/30 00:51:14;;;;;;;26.47;18.80;;;17.10;99.90;;;;;;6126675;23;20170;-72
2021/08/30 00:53:42;;;;;;;25.97;18.93;;;17.20;99.90;;;;;;6127243;23;20396;-71
2021/08/30 00:56:10;;;;;;;24.70;18.07;;;17.10;99.90;;;;;;6126234;23;20471;-70
2021/08/30 00:58:39;;;;;;;24.67;19.10;;;17.20;99.90;;;;;;6125434;23;20447;-71
2021/08/30 01:01:06;;;;;;;21.10;18.70;;;17.20;99.90;;;;;;6126303;23;20404;-72
2021/08/30 01:03:35;;;;;;;22.63;17.43;;;17.20;99.90;;;;;;6126070;23;20428;-71
2021/08/30 01:06:10;;;;;;;23.70;18.50;;;17.20;99.90;;;;;;6127431;23;20499;-72
2021/08/30 01:08:42;;;;;;;24.43;19.13;;;17.20;99.90;;;;;;6101368;23;20418;-71
2021/08/30 01:11:15;;;;;;;29.33;19.33;;;17.10;99.90;;;;;;6127088;23;20396;-72
2021/08/30 01:13:49;;;;;;;23.00;18.27;;;17.10;99.90;;;;;;6127345;23;20393;-71
2021/08/30 01:16:18;;;;;;;21.65;18.83;;;17.10;99.90;;;;;;6100779;23;20513;-71
2021/08/30 01:25:36;;;;;;;31.17;20.87;;;17.10;99.90;;;;;;6128158;23;20247;-72
2021/08/30 01:28:04;;;;;;;24.67;19.60;;;17.00;99.90;;;;;;6127609;23;20403;-71
2021/08/30 01:30:41;;;;;;;27.47;21.50;;;17.00;99.90;;;;;;6128563;23;20393;-73
2021/08/30 01:33:12;;;;;;;30.33;20.25;;;16.90;99.90;;;;;;6128360;23;20475;-73
2021/08/30 01:35:40;;;;;;;25.77;21.33;;;16.80;99.90;;;;;;6128908;23;20226;-71
2021/08/30 01:38:12;;;;;;;36.67;21.17;;;16.80;99.90;;;;;;6129125;23;20176;-71
2021/08/30 01:40:40;;;;;;;31.70;22.40;;;16.80;99.90;;;;;;6127274;23;20175;-71
2021/08/30 01:43:08;;;;;;;30.85;22.33;;;16.70;99.90;;;;;;6126865;23;20483;-70
2021/08/30 01:45:36;;;;;;;27.77;21.90;;;16.70;99.90;;;;;;6126315;23;20208;-72
2021/08/30 01:48:07;;;;;;;26.80;21.13;;;16.70;99.90;;;;;;6126079;23;20448;-71
2021/08/30 01:50:38;;;;;;;24.35;20.67;;;16.60;99.90;;;;;;6127059;23;20392;-71
2021/08/30 01:53:08;;;;;;;29.97;22.70;;;16.60;99.90;;;;;;6126684;23;20218;-71
2021/08/30 01:55:42;;;;;;;28.05;20.33;;;16.70;99.90;;;;;;6126445;23;20420;-72
2021/08/30 02:00:56;;;;;;;24.35;20.05;;;16.60;99.90;;;;;;6127147;23;20164;-71
2021/08/30 02:03:24;;;;;;;29.37;20.10;;;16.60;99.90;;;;;;6126124;23;20215;-71
2021/08/30 02:05:55;;;;;;;24.73;20.90;;;16.60;99.90;;;;;;6126755;23;20454;-72
2021/08/30 02:08:23;;;;;;;25.40;21.42;;;16.60;99.90;;;;;;6126858;23;20404;-71
2021/08/30 02:10:52;;;;;;;25.13;22.23;;;16.60;99.90;;;;;;6127891;23;20167;-73
2021/08/30 02:13:20;;;;;;;25.95;21.75;;;16.70;99.90;;;;;;6127194;23;20447;-72
2021/08/30 02:15:48;;;;;;;29.67;20.43;;;16.70;99.90;;;;;;6126686;23;20204;-72
2021/08/30 02:18:21;;;;;;;32.67;22.30;;;16.80;99.90;;;;;;6125504;23;20393;-71
2021/08/30 02:20:58;;;;;;;28.58;21.88;;;16.80;99.90;;;;;;6129813;23;20169;-70
2021/08/30 02:23:31;;;;;;;27.77;21.15;;;16.70;99.90;;;;;;6127495;23;20197;-71
2021/08/30 02:26:16;;;;;;;26.40;21.60;;;16.80;99.90;;;;;;6126861;23;20664;-72
2021/08/30 02:28:47;;;;;;;29.53;20.67;;;16.70;99.90;;;;;;6125727;23;20403;-72
2021/08/30 02:31:15;;;;;;;23.23;19.90;;;16.80;99.90;;;;;;6126746;23;21220;-71
2021/08/30 02:33:43;;;;;;;23.50;19.27;;;16.80;99.90;;;;;;6126076;23;20476;-71
2021/08/30 02:36:14;;;;;;;27.15;20.80;;;16.80;99.90;;;;;;6126452;23;20279;-71
2021/08/30 02:38:43;;;;;;;23.35;20.10;;;16.90;99.90;;;;;;6124311;23;20176;-71
2021/08/30 02:41:11;;;;;;;27.73;21.43;;;16.90;99.90;;;;;;6126434;23;20164;-71
2021/08/30 02:43:38;;;;;;;29.30;21.95;;;16.90;99.90;;;;;;6127208;23;20512;-71
2021/08/30 02:46:06;;;;;;;23.60;19.23;;;16.90;99.90;;;;;;6130725;23;20694;-72
2021/08/30 02:48:35;;;;;;;22.73;18.92;;;16.90;99.90;;;;;;6127387;23;20171;-72
2021/08/30 02:51:03;;;;;;;27.63;21.48;;;17.00;99.90;;;;;;6129548;23;20214;-71
2021/08/30 02:53:33;;;;;;;31.48;21.77;;;17.00;99.90;;;;;;6127176;23;20191;-72
2021/08/30 02:56:01;;;;;;;28.27;20.83;;;16.90;99.90;;;;;;6126213;23;20322;-72
2021/08/30 02:58:29;;;;;;;29.67;23.30;;;16.90;99.90;;;;;;6125655;23;20203;-71
2021/08/30 03:00:57;;;;;;;26.17;21.23;;;16.90;99.90;;;;;;6126375;23;20164;-72
2021/08/30 03:03:24;;;;;;;27.45;19.90;;;16.90;99.90;;;;;;6126053;23;20193;-72
2021/08/30 03:05:53;;;;;;;24.77;20.50;;;16.90;99.90;;;;;;6125952;23;20204;-72
2021/08/30 03:08:21;;;;;;;24.73;21.38;;;16.90;99.90;;;;;;6125355;23;20597;-72
2021/08/30 03:10:51;;;;;;;23.88;19.75;;;16.90;99.90;;;;;;6126467;23;20170;-71
2021/08/30 03:13:18;;;;;;;22.10;19.15;;;16.80;99.90;;;;;;6126352;23;20241;-72
2021/08/30 03:15:49;;;;;;;25.02;21.88;;;16.80;99.90;;;;;;6125964;23;20931;-72
2021/08/30 03:18:18;;;;;;;27.30;20.75;;;16.80;99.90;;;;;;6125367;23;20164;-71
2021/08/30 03:20:47;;;;;;;30.58;21.20;;;16.70;99.90;;;;;;6125701;23;20163;-72
2021/08/30 03:23:15;;;;;;;28.50;21.75;;;16.70;99.90;;;;;;6124839;23;20188;-72
2021/08/30 03:25:43;;;;;;;27.08;19.35;;;16.70;99.90;;;;;;6125830;23;20509;-71
2021/08/30 03:28:13;;;;;;;26.58;22.15;;;16.70;99.90;;;;;;6125111;23;20165;-72
2021/08/30 03:30:41;;;;;;;27.75;24.58;;;16.60;99.90;;;;;;6126177;23;20163;-72
2021/08/30 03:33:08;;;;;;;21.52;19.23;;;16.60;99.90;;;;;;6128296;23;20182;-72
2021/08/30 03:35:36;;;;;;;25.42;19.92;;;16.60;99.90;;;;;;6125580;23;20236;-72
2021/08/30 03:38:04;;;;;;;27.27;21.02;;;16.50;99.90;;;;;;6126616;23;20190;-71
2021/08/30 03:40:32;;;;;;;22.65;20.25;;;16.50;99.90;;;;;;6129139;23;20167;-71
2021/08/30 03:43:01;;;;;;;26.85;21.88;;;16.50;99.90;;;;;;6125920;23;20166;-72
2021/08/30 03:45:30;;;;;;;30.95;22.58;;;16.40;99.90;;;;;;6124700;23;20207;-71
2021/08/30 03:47:59;;;;;;;26.98;22.52;;;16.40;99.90;;;;;;6125048;23;20171;-72
2021/08/30 03:50:35;;;;;;;26.15;21.27;;;16.40;99.90;;;;;;6125175;23;20247;-71
2021/08/30 03:53:04;;;;;;;21.48;19.13;;;16.40;99.90;;;;;;6099201;23;20185;-72
2021/08/30 03:55:32;;;;;;;24.27;21.40;;;16.30;99.90;;;;;;6125567;23;20203;-72
2021/08/30 03:58:00;;;;;;;26.13;21.33;;;16.30;99.90;;;;;;6125681;23;20187;-71
2021/08/30 04:00:31;;;;;;;27.98;23.23;;;16.20;99.90;;;;;;6125530;23;20223;-71
2021/08/30 04:03:01;;;;;;;25.60;22.25;;;16.20;99.90;;;;;;6126287;23;20655;-72
2021/08/30 04:05:33;;;;;;;25.10;20.35;;;16.30;99.90;;;;;;6126313;23;20231;-72
2021/08/30 04:08:01;;;;;;;24.05;19.60;;;16.30;99.90;;;;;;6125223;23;20162;-73
2021/08/30 04:10:30;;;;;;;29.05;20.90;;;16.30;99.90;;;;;;6125002;23;20169;-72
2021/08/30 04:12:58;;;;;;;23.65;21.05;;;16.30;99.90;;;;;;6125564;23;20168;-73
2021/08/30 04:15:26;;;;;;;24.98;22.10;;;16.20;99.90;;;;;;6125490;23;20198;-72
2021/08/30 04:17:54;;;;;;;26.77;22.08;;;16.30;99.90;;;;;;6125292;23;20251;-72
2021/08/30 04:20:22;;;;;;;30.10;24.60;;;16.30;99.90;;;;;;6124698;23;20202;-72
2021/08/30 04:22:49;;;;;;;29.98;22.25;;;16.30;99.90;;;;;;6125822;23;20203;-72
2021/08/30 04:25:16;;;;;;;29.10;20.92;;;16.30;99.90;;;;;;6125332;23;20205;-72
2021/08/30 04:27:44;;;;;;;25.10;22.13;;;16.30;99.90;;;;;;6125559;23;20172;-72
2021/08/30 04:30:11;;;;;;;27.23;21.15;;;16.30;99.90;;;;;;6124625;23;20167;-72
2021/08/30 04:32:40;;;;;;;27.13;22.33;;;16.40;99.90;;;;;;6125344;23;20185;-72
2021/08/30 04:35:09;;;;;;;28.98;20.63;;;16.50;99.90;;;;;;6126987;23;20261;-71
2021/08/30 04:37:37;;;;;;;27.20;21.10;;;16.50;99.90;;;;;;6126574;23;20196;-71
2021/08/30 04:40:05;;;;;;;30.80;21.08;;;16.50;99.90;;;;;;6125026;23;20226;-71
2021/08/30 04:42:33;;;;;;;30.77;22.38;;;16.50;99.90;;;;;;6126429;23;20172;-72
2021/08/30 04:45:01;;;;;;;24.17;20.35;;;16.50;99.90;;;;;;6126772;23;20195;-72
2021/08/30 04:47:29;;;;;;;26.52;21.90;;;16.50;99.90;;;;;;6126496;23;20200;-71
2021/08/30 04:49:56;;;;;;;26.27;20.85;;;16.50;99.90;;;;;;6126213;23;20243;-71
2021/08/30 04:52:25;;;;;;;33.40;21.42;;;16.50;99.90;;;;;;6126623;23;20204;-71
2021/08/30 04:54:52;;;;;;;25.95;20.88;;;16.60;99.90;;;;;;6126833;23;20245;-71
2021/08/30 04:57:19;;;;;;;22.38;19.98;;;16.60;99.90;;;;;;6126823;23;20643;-71
2021/08/30 04:59:47;;;;;;;24.77;20.83;;;16.70;99.90;;;;;;6125866;23;20170;-71
2021/08/30 05:02:15;;;;;;;26.15;23.05;;;16.70;99.90;;;;;;6127003;23;20177;-72
2021/08/30 05:04:42;;;;;;;32.15;22.77;;;16.80;99.90;;;;;;6126369;23;20711;-70
2021/08/30 05:07:11;;;;;;;24.13;20.35;;;16.90;99.90;;;;;;6127149;23;20202;-72
2021/08/30 05:09:39;;;;;;;24.70;21.25;;;16.80;99.90;;;;;;6125919;23;20168;-72
2021/08/30 05:12:07;;;;;;;23.08;19.90;;;16.80;99.90;;;;;;6126823;23;20159;-71
2021/08/30 05:14:35;;;;;;;23.08;20.23;;;16.90;99.90;;;;;;6126054;23;20625;-73
2021/08/30 05:17:04;;;;;;;23.15;19.63;;;16.90;99.90;;;;;;6126487;23;20202;-72
2021/08/30 05:19:31;;;;;;;29.70;21.10;;;16.90;99.90;;;;;;6125412;23;20167;-71
2021/08/30 05:21:58;;;;;;;23.65;20.38;;;16.90;99.90;;;;;;6126033;23;20172;-70
2021/08/30 05:24:26;;;;;;;27.85;23.85;;;16.90;99.90;;;;;;6126597;23;20188;-71
2021/08/30 05:26:54;;;;;;;26.90;22.50;;;16.90;99.90;;;;;;6126840;23;20239;-69
2021/08/30 05:29:31;;;;;;;29.10;20.98;;;16.90;99.90;;;;;;6127063;23;20162;-70
2021/08/30 05:31:59;;;;;;;27.52;21.90;;;17.00;99.90;;;;;;6127553;23;20162;-70
2021/08/30 05:34:46;;;;;;;23.33;20.90;;;17.00;99.90;;;;;;6126772;23;20226;-70
2021/08/30 05:37:21;;;;;;;19.55;17.30;;;17.10;99.90;;;;;;6127161;23;20163;-70
2021/08/30 05:39:48;;;;;;;25.27;18.80;;;17.10;99.90;;;;;;6125474;23;20166;-71
2021/08/30 05:42:17;;;;;;;25.48;21.10;;;17.20;99.90;;;;;;6126688;23;20477;-70
2021/08/30 05:44:44;;;;;;;29.00;21.13;;;17.20;99.90;;;;;;6125544;23;20195;-71
2021/08/30 05:47:11;;;;;;;25.25;20.55;;;17.30;99.90;;;;;;6125721;23;20206;-71
2021/08/30 05:49:38;;;;;;;23.53;19.63;;;17.30;99.90;;;;;;6125258;23;20555;-72
2021/08/30 05:52:06;;;;;;;25.00;18.23;;;17.40;99.90;;;;;;6126544;23;20398;-71
2021/08/30 05:54:34;;;;;;;19.38;17.23;;;17.50;99.90;;;;;;6126001;23;20387;-71
2021/08/30 05:57:02;;;;;;;23.98;19.73;;;17.50;99.90;;;;;;6124985;23;20647;-71
2021/08/30 05:59:31;;;;;;;22.13;19.63;;;17.60;99.90;;;;;;6124700;23;20166;-71
2021/08/30 06:01:58;;;;;;;23.67;17.07;;;17.70;99.90;;;;;;6126378;23;20432;-70
2021/08/30 06:04:27;;;;;;;19.03;16.13;;;18.00;99.90;;;;;;6125638;23;20752;-69
2021/08/30 06:06:56;;;;;;;20.50;17.40;;;18.30;99.90;;;;;;6126136;23;20425;-71
2021/08/30 06:09:24;;;;;;;19.90;16.33;;;18.40;99.90;;;;;;6125564;23;20788;-70
2021/08/30 06:11:51;;;;;;;20.63;17.30;;;18.50;99.90;;;;;;6125889;23;20437;-70
2021/08/30 06:14:18;;;;;;;20.70;16.10;;;18.60;99.90;;;;;;6125914;23;20401;-74
2021/08/30 06:16:49;;;;;;;16.20;14.03;;;18.70;99.90;;;;;;6126628;23;20425;-74
2021/08/30 06:19:16;;;;;;;17.97;16.17;;;18.80;99.90;;;;;;6126463;23;20407;-75
2021/08/30 06:21:43;;;;;;;20.10;16.90;;;18.80;99.90;;;;;;6127485;23;20718;-75
2021/08/30 06:24:11;;;;;;;23.77;17.37;;;18.80;99.90;;;;;;6126737;23;20821;-75
2021/08/30 06:26:38;;;;;;;18.80;15.40;;;18.80;99.90;;;;;;6127039;23;20434;-75
2021/08/30 06:29:06;;;;;;;18.53;16.20;;;18.90;99.90;;;;;;6126122;23;20407;-75
2021/08/30 06:31:33;;;;;;;18.10;15.47;;;18.90;99.90;;;;;;6126295;23;20424;-74
2021/08/30 06:34:03;;;;;;;18.63;15.90;;;18.80;99.90;;;;;;6126495;23;20390;-74
2021/08/30 06:36:30;;;;;;;19.40;14.90;;;18.90;99.90;;;;;;6125962;23;20436;-73
2021/08/30 06:38:57;;;;;;;17.33;15.53;;;18.90;99.90;;;;;;6125838;23;20401;-74
2021/08/30 07:00:11;;;;;;;18.77;14.97;;;18.80;99.90;;;;;;5992841;23;20396;-85
2021/08/30 07:03:17;;;;;;;17.43;15.60;;;18.90;99.90;;;;;;6103362;23;20409;-88
2021/08/30 07:08:55;;;;;;;21.70;16.73;;;19.00;99.90;;;;;;6133915;23;20412;-85
2021/08/30 07:11:23;;;;;;;18.30;14.87;;;19.00;99.90;;;;;;6140622;23;20425;-83
2021/08/30 07:13:50;;;;;;;17.23;15.40;;;19.10;99.90;;;;;;6139167;23;20450;-82
2021/08/30 07:16:18;;;;;;;21.33;15.10;;;19.10;99.90;;;;;;6136755;23;20544;-84
2021/08/30 07:18:45;;;;;;;19.80;15.70;;;19.10;99.90;;;;;;6136909;23;20416;-83
2021/08/30 07:21:12;;;;;;;19.73;14.70;;;19.10;99.90;;;;;;6137699;23;20804;-84
2021/08/30 07:23:40;;;;;;;17.90;14.13;;;19.20;99.90;;;;;;6137184;23;20419;-84
2021/08/30 07:26:07;;;;;;;18.10;14.60;;;19.30;99.90;;;;;;6139573;23;20445;-83
2021/08/30 07:28:34;;;;;;;15.03;13.47;;;19.30;99.90;;;;;;6138471;23;20420;-84
2021/08/30 07:31:01;;;;;;;17.40;14.50;;;19.30;99.90;;;;;;6143943;23;20416;-84
2021/08/30 07:33:30;;;;;;;16.03;12.90;;;19.30;99.90;;;;;;6152465;23;20425;-85
2021/08/30 07:35:57;;;;;;;15.70;13.70;;;19.40;99.90;;;;;;6152177;23;20469;-85
2021/08/30 07:38:24;;;;;;;21.93;14.27;;;19.30;99.90;;;;;;6151704;23;20477;-86
2021/08/30 07:40:52;;;;;;;14.93;11.60;;;19.30;99.90;;;;;;6151425;23;20405;-85
2021/08/30 07:43:19;;;;;;;15.60;12.27;;;19.40;99.90;;;;;;6140588;23;20413;-85
2021/08/30 07:45:47;;;;;;;14.37;12.83;;;19.50;99.90;;;;;;6136597;23;20498;-84
2021/08/30 07:48:14;;;;;;;14.73;13.03;;;19.60;99.90;;;;;;6139562;23;20476;-85
2021/08/30 07:50:42;;;;;;;15.53;13.30;;;19.70;99.90;;;;;;6145798;23;20963;-83
2021/08/30 07:53:09;;;;;;;15.00;13.40;;;19.80;99.90;;;;;;6147429;23;20417;-84
2021/08/30 07:55:37;;;;;;;13.50;11.93;;;19.90;99.90;;;;;;6147568;23;20417;-84
2021/08/30 07:58:05;;;;;;;15.77;13.03;;;20.00;99.90;;;;;;6147709;23;20430;-85
2021/08/30 08:00:32;;;;;;;16.07;13.30;;;20.00;99.90;;;;;;6145164;23;20405;-84
2021/08/30 08:02:59;;;;;;;15.53;12.27;;;20.10;99.90;;;;;;6141086;23;20431;-85
2021/08/30 08:05:27;;;;;;;13.03;11.70;;;20.20;99.90;;;;;;6139933;23;20445;-84
2021/08/30 08:07:55;;;;;;;14.37;12.97;;;20.30;99.90;;;;;;6144522;23;20469;-84
2021/08/30 08:10:23;;;;;;;11.33;10.17;;;20.40;99.90;;;;;;6145224;23;20770;-85
2021/08/30 08:12:50;;;;;;;14.80;10.80;;;20.50;99.90;;;;;;6143603;23;20444;-85
2021/08/30 08:15:17;;;;;;;17.07;14.07;;;20.70;99.90;;;;;;6148841;23;20425;-85
2021/08/30 08:17:44;;;;;;;12.90;10.97;;;20.80;99.90;;;;;;6152343;23;20426;-85
2021/08/30 08:20:13;;;;;;;13.90;12.37;;;20.90;99.90;;;;;;6149170;23;20445;-85
2021/08/30 08:22:41;;;;;;;13.40;11.30;;;21.00;99.90;;;;;;6141224;23;20421;-86
2021/08/30 08:25:11;;;;;;;14.83;10.50;;;21.20;99.90;;;;;;6140924;23;20447;-86
2021/08/30 08:27:38;;;;;;;12.47;10.60;;;21.30;99.90;;;;;;6140210;23;20460;-85
2021/08/30 08:30:07;;;;;;;11.97;9.83;;;21.40;99.90;;;;;;6139120;23;20409;-86
2021/08/30 08:32:34;;;;;;;10.63;9.53;;;21.50;99.90;;;;;;6139020;23;20408;-87
2021/08/30 08:35:02;;;;;;;12.43;11.17;;;21.60;99.90;;;;;;6142650;23;20493;-84
2021/08/30 08:37:29;;;;;;;12.80;9.67;;;21.80;99.90;;;;;;6135194;23;21026;-82
2021/08/30 08:39:56;;;;;;;12.23;10.90;;;21.90;99.90;;;;;;6136764;23;20409;-85
2021/08/30 08:42:25;;;;;;;13.60;11.33;;;22.00;99.90;;;;;;6138426;23;20448;-84
2021/08/30 08:44:52;;;;;;;14.83;11.00;;;22.00;99.90;;;;;;6139969;23;20459;-84
2021/08/30 08:47:19;;;;;;;9.97;9.00;;;22.30;99.90;;;;;;6139406;23;20451;-86
2021/08/30 08:49:51;;;;;;;11.80;9.60;;;22.50;99.90;;;;;;6140905;23;20456;-84
2021/08/30 08:52:21;;;;;;;11.80;9.70;;;22.60;99.90;;;;;;6143817;23;20385;-85
2021/08/30 08:54:48;;;;;;;15.40;11.30;;;22.90;99.90;;;;;;6150458;23;20448;-82
2021/08/30 08:57:15;;;;;;;15.80;10.70;;;23.20;99.90;;;;;;6144237;23;20524;-86
2021/08/30 08:59:56;;;;;;;13.23;9.30;;;23.30;99.90;;;;;;6145531;23;20509;-86
2021/08/30 09:02:27;;;;;;;13.73;11.93;;;23.50;99.90;;;;;;6148321;23;20433;-86
2021/08/30 09:04:55;;;;;;;12.43;9.27;;;23.60;99.90;;;;;;6148955;23;20434;-86
2021/08/30 09:07:30;;;;;;;11.87;10.67;;;24.00;99.90;;;;;;6149277;23;20441;-83
2021/08/30 09:10:00;;;;;;;9.50;8.60;;;24.30;99.90;;;;;;6146717;23;20407;-85
2021/08/30 09:12:27;;;;;;;13.37;10.50;;;24.70;99.90;;;;;;6140277;23;20505;-82
2021/08/30 09:14:55;;;;;;;14.37;11.00;;;25.10;99.90;;;;;;6140194;23;20416;-83
2021/08/30 09:17:24;;;;;;;10.70;9.60;;;24.90;99.90;;;;;;6139292;23;20433;-83
2021/08/30 09:19:55;;;;;;;13.17;9.70;;;24.70;99.90;;;;;;6138470;23;20422;-85
2021/08/30 09:22:34;;;;;;;11.97;10.67;;;24.20;99.90;;;;;;6139863;23;20410;-85
2021/08/30 09:25:09;;;;;;;11.97;8.93;;;23.90;99.90;;;;;;6140341;23;20460;-84
2021/08/30 09:27:37;;;;;;;11.37;10.23;;;23.50;99.90;;;;;;6139493;23;20435;-85
2021/08/30 09:30:11;;;;;;;10.93;9.83;;;23.20;99.90;;;;;;6139214;23;20448;-86
2021/08/30 09:32:38;;;;;;;12.47;9.67;;;23.10;99.90;;;;;;6138374;23;20394;-83
2021/08/30 09:35:06;;;;;;;10.10;9.10;;;23.20;99.90;;;;;;6139231;23;20787;-83
2021/08/30 09:37:38;;;;;;;10.70;9.10;;;23.30;99.90;;;;;;6152756;23;20421;-86
2021/08/30 09:40:07;;;;;;;10.33;9.30;;;23.50;99.90;;;;;;6153152;23;20417;-86
2021/08/30 09:42:35;;;;;;;10.07;9.03;;;23.60;99.90;;;;;;6153155;23;20429;-87
2021/08/30 09:45:13;;;;;;;9.33;8.30;;;23.80;99.90;;;;;;6153232;23;20460;-85
2021/08/30 09:47:50;;;;;;;12.33;8.83;;;24.50;99.90;;;;;;6153196;23;20496;-86
2021/08/30 09:50:17;;;;;;;10.97;9.87;;;25.10;99.90;;;;;;6153014;23;20489;-86
2021/08/30 09:52:45;;;;;;;10.30;9.20;;;25.10;99.90;;;;;;6152584;23;20402;-86
2021/08/30 09:55:13;;;;;;;10.63;8.03;;;25.10;99.90;;;;;;6143654;23;20410;-85
2021/08/30 09:57:48;;;;;;;8.67;7.77;;;25.00;99.90;;;;;;6136748;23;21019;-83
2021/08/30 10:00:18;;;;;;;10.13;8.17;;;25.10;99.90;;;;;;6136103;23;20430;-84
2021/08/30 10:02:50;;;;;;;8.80;7.90;;;25.30;99.90;;;;;;6136383;23;20482;-84
2021/08/30 10:05:17;;;;;;;10.57;7.43;;;25.50;99.90;;;;;;6135633;23;20443;-85
2021/08/30 10:07:46;;;;;;;9.20;8.37;;;25.60;99.90;;;;;;6137201;23;20445;-84
2021/08/30 10:10:13;;;;;;;8.87;7.97;;;25.40;99.90;;;;;;6138346;23;20421;-84
2021/08/30 10:12:42;;;;;;;8.63;7.73;;;25.50;99.90;;;;;;6140356;23;20428;-84
2021/08/30 10:15:12;;;;;;;9.40;7.10;;;25.60;99.90;;;;;;6139539;23;20405;-84
2021/08/30 10:17:47;;;;;;;8.30;6.30;;;25.90;99.40;;;;;;6138272;23;20434;-84
2021/08/30 10:20:18;;;;;;;8.87;7.80;;;26.00;98.40;;;;;;6137599;23;20397;-84
2021/08/30 10:22:57;;;;;;;8.00;6.50;;;26.20;97.60;;;;;;6137192;23;20390;-84
2021/08/30 10:25:24;;;;;;;9.20;7.20;;;26.10;97.60;;;;;;6137572;23;20445;-84
2021/08/30 10:27:57;;;;;;;8.40;6.97;;;25.90;96.90;;;;;;6142258;23;20420;-84
2021/08/30 10:30:25;;;;;;;7.53;6.70;;;25.90;97.00;;;;;;6137609;23;20401;-84
2021/08/30 10:32:59;;;;;;;7.43;6.20;;;25.90;97.00;;;;;;6145648;23;20473;-85
2021/08/30 10:35:29;;;;;;;8.73;7.60;;;25.60;96.90;;;;;;6141211;23;20393;-85
2021/08/30 10:37:59;;;;;;;6.67;6.17;;;25.50;97.90;;;;;;6139323;23;20806;-84
2021/08/30 10:40:30;;;;;;;6.97;6.00;;;25.50;98.20;;;;;;6137060;23;21055;-84
2021/08/30 10:43:07;;;;;;;9.33;7.07;;;25.50;98.30;;;;;;6135614;23;20445;-84
2021/08/30 10:45:39;;;;;;;8.73;7.13;;;25.60;97.10;;;;;;6140171;23;20447;-85
2021/08/30 10:48:11;;;;;;;7.03;6.40;;;25.40;97.00;;;;;;6139922;23;20444;-84
2021/08/30 10:50:44;;;;;;;8.17;7.20;;;25.30;97.10;;;;;;6139465;23;20462;-85
2021/08/30 10:53:17;;;;;;;7.60;6.83;;;25.20;99.20;;;;;;6135447;23;20417;-84
2021/08/30 10:55:47;;;;;;;8.83;7.90;;;25.20;99.90;;;;;;6133100;23;20402;-85
2021/08/30 10:58:17;;;;;;;6.80;6.20;;;25.00;99.90;;;;;;6133081;23;20433;-85
2021/08/30 11:00:56;;;;;;;9.30;7.27;;;24.90;99.90;;;;;;6134637;23;20764;-82
2021/08/30 11:03:30;;;;;;;7.93;7.13;;;24.80;99.90;;;;;;6132698;23;20423;-84
2021/08/30 11:06:08;;;;;;;6.87;5.90;;;24.80;99.90;;;;;;6132865;23;20445;-83
2021/08/30 11:08:36;;;;;;;7.57;6.70;;;24.80;99.60;;;;;;6134179;23;20382;-83
2021/08/30 11:11:15;;;;;;;7.57;6.30;;;24.80;99.10;;;;;;6139721;23;20402;-83
2021/08/30 11:13:44;;;;;;;7.80;7.00;;;24.30;99.60;;;;;;6135061;23;20394;-82
2021/08/30 11:16:22;;;;;;;8.80;6.50;;;24.10;99.80;;;;;;6135721;23;20421;-84
2021/08/30 11:18:56;;;;;;;8.60;7.70;;;23.80;99.90;;;;;;6135924;23;20426;-84
2021/08/30 11:21:44;;;;;;;8.63;7.40;;;23.50;99.90;;;;;;6134116;23;20860;-83
2021/08/30 11:24:23;;;;;;;9.53;6.80;;;23.30;99.90;;;;;;6135406;23;20405;-84
2021/08/30 11:26:50;;;;;;;7.40;6.70;;;23.00;99.90;;;;;;6133511;23;20504;-83
2021/08/30 11:29:17;;;;;;;8.00;7.13;;;23.00;99.90;;;;;;6133093;23;20469;-84
2021/08/30 11:31:44;;;;;;;7.70;6.67;;;23.00;99.90;;;;;;6133554;23;20413;-84
2021/08/30 11:34:24;;;;;;;7.90;7.20;;;23.10;99.90;;;;;;6133999;23;20401;-84
2021/08/30 11:36:52;;;;;;;7.73;6.90;;;23.20;99.90;;;;;;6135190;23;20435;-84
2021/08/30 11:39:20;;;;;;;6.57;5.97;;;23.20;99.90;;;;;;6136803;23;20417;-85
2021/08/30 11:41:51;;;;;;;8.27;6.93;;;23.30;99.90;;;;;;6134336;23;20440;-83
2021/08/30 11:44:18;;;;;;;7.23;6.50;;;23.40;99.90;;;;;;6135014;23;20497;-84
2021/08/30 11:46:48;;;;;;;7.90;7.10;;;23.30;99.90;;;;;;6136605;23;20524;-83
2021/08/30 11:49:17;;;;;;;8.87;6.30;;;23.20;99.90;;;;;;6136480;23;20445;-84
2021/08/30 11:51:47;;;;;;;7.20;6.50;;;23.10;99.90;;;;;;6135426;23;20963;-83
2021/08/30 11:54:18;;;;;;;7.77;6.97;;;23.00;99.90;;;;;;6135127;23;21043;-84
2021/08/30 11:56:56;;;;;;;8.47;6.63;;;23.00;99.90;;;;;;6142321;23;20449;-84
2021/08/30 11:59:30;;;;;;;7.33;6.70;;;23.10;99.90;;;;;;6139923;23;20416;-84
2021/08/30 12:01:58;;;;;;;11.17;6.77;;;23.40;99.90;;;;;;6143605;23;20404;-85
2021/08/30 12:04:30;;;;;;;9.90;6.40;;;23.50;99.90;;;;;;6143208;23;20416;-85
2021/08/30 12:07:00;;;;;;;8.33;6.27;;;23.40;99.90;;;;;;6142486;23;20449;-85
2021/08/30 12:09:42;;;;;;;7.00;6.30;;;23.30;99.90;;;;;;6140467;23;20718;-84
2021/08/30 12:12:16;;;;;;;9.50;6.40;;;23.40;99.90;;;;;;6140326;23;20398;-85
2021/08/30 12:15:01;;;;;;;7.90;6.50;;;23.50;99.90;;;;;;6140188;23;20401;-84
2021/08/30 12:17:30;;;;;;;9.13;6.27;;;23.60;99.90;;;;;;6137847;23;20426;-85
2021/08/30 12:20:01;;;;;;;8.80;7.37;;;23.50;99.90;;;;;;6139499;23;20434;-84
2021/08/30 12:22:30;;;;;;;6.57;5.93;;;23.40;99.90;;;;;;6139758;23;20488;-84
2021/08/30 12:25:06;;;;;;;6.73;5.77;;;23.40;99.90;;;;;;6140108;23;20450;-83
2021/08/30 12:27:34;;;;;;;6.43;5.83;;;23.60;99.90;;;;;;6137349;23;20459;-84
2021/08/30 12:30:16;;;;;;;7.40;6.40;;;23.80;99.90;;;;;;6137939;23;20818;-84
2021/08/30 12:33:03;;;;;;;7.83;7.03;;;24.00;99.90;;;;;;6138342;23;20400;-87
2021/08/30 12:35:33;;;;;;;6.40;5.30;;;24.30;99.90;;;;;;6137865;23;20414;-84
2021/08/30 12:38:03;;;;;;;6.23;5.53;;;24.60;98.30;;;;;;6134267;23;20440;-83
2021/08/30 12:40:33;;;;;;;7.10;5.93;;;24.60;97.80;;;;;;6133233;23;20413;-84
2021/08/30 12:43:00;;;;;;;6.73;6.10;;;24.70;97.70;;;;;;6133821;23;20432;-83
2021/08/30 12:45:28;;;;;;;7.63;6.40;;;24.80;96.90;;;;;;6150642;23;20453;-88
2021/08/30 12:47:55;;;;;;;8.73;6.77;;;24.80;96.60;;;;;;6151192;23;20413;-87
2021/08/30 12:50:25;;;;;;;8.50;6.10;;;24.70;97.30;;;;;;6151530;23;20480;-86
2021/08/30 12:52:55;;;;;;;6.23;5.63;;;24.60;98.20;;;;;;6151097;23;20457;-86
2021/08/30 12:55:22;;;;;;;6.83;5.63;;;24.70;97.90;;;;;;6152958;23;20444;-86
2021/08/30 12:57:50;;;;;;;11.57;6.80;;;24.90;97.80;;;;;;6152735;23;20420;-83
2021/08/30 13:00:19;;;;;;;6.10;5.50;;;24.80;97.50;;;;;;6153161;23;20409;-86
2021/08/30 13:02:49;;;;;;;6.40;5.80;;;24.80;97.30;;;;;;6153549;23;20393;-87
2021/08/30 13:05:18;;;;;;;5.20;4.70;;;24.90;97.30;;;;;;6152577;23;20405;-85
2021/08/30 13:07:46;;;;;;;6.63;6.03;;;24.90;96.60;;;;;;6152869;23;20524;-86
2021/08/30 13:10:15;;;;;;;6.73;5.70;;;24.70;96.30;;;;;;6153143;23;20404;-85
2021/08/30 13:12:43;;;;;;;6.10;5.47;;;24.60;95.40;;;;;;6153335;23;20397;-85
2021/08/30 13:15:12;;;;;;;7.47;6.10;;;24.20;95.70;;;;;;6151904;23;20403;-85
2021/08/30 13:17:40;;;;;;;6.93;4.90;;;24.20;95.80;;;;;;6152118;23;20425;-88